Otago Bay — VRQK3 — position and weather

sailwx.info

Track history (hours):
 
Tides and Currents Weather Stations Pressure Air Temp Water Temp Dewpoint Dewpoint Depression Visibility Wind Speed Wind Dir Waves Ship Positions

Otago Bay

Last reported at 2018-May-21 13:23 UTC. Time now 2018-May-24 12:11 UTC.
Position N 39°54' E 119°35'.

Length 190 m; draft 12.5 m.

Type: Cargo ship. MMSI: 477023600.

Date/timePositionNaut miles runAvg speedWind from/ knotsBaromVisibWave heightAir tempDewpointWater temp
2018-May-21 13:23N 39°54' E 119°35'0 0.0
2018-May-21 12:50N 39°54' E 119°35'0 0.0
2018-May-21 12:29N 39°54' E 119°35'0 0.0
2018-May-21 11:54N 39°54' E 119°35'  
2018-May-18 11:24N 38°30' E 121°13'3011.9
2018-May-18 08:52N 38°23' E 121°51'513.0
2018-May-18 08:30N 38°23' E 121°57'  
2018-May-14 15:00N 39°18' E 137°00'19113.1 230 / 151006.0 0.1 10.0 7.9 9.0
2018-May-14 00:24N 41°19' E 140°13'410.0
2018-May-13 23:59N 41°22' E 140°18'510.2
2018-May-13 23:30N 41°25' E 140°23'610.5
2018-May-13 22:58N 41°28' E 140°30'510.3
2018-May-13 22:30N 41°30' E 140°35'510.6
2018-May-13 22:00N 41°33' E 140°41'611.9
2018-May-13 21:30N 41°37' E 140°47'511.0
2018-May-13 21:00N 41°39' E 140°54'510.7
2018-May-13 20:30N 41°39' E 141°01'612.1
2018-May-13 20:00N 41°39' E 141°09'713.1
2018-May-13 19:30N 41°39' E 141°18'612.2
2018-May-13 19:00N 41°39' E 141°26'611.2
2018-May-13 18:28N 41°38' E 141°34'  
Track history (hours):
 
Tides and Currents Weather Stations Pressure Air Temp Water Temp Dewpoint Dewpoint Depression Visibility Wind Speed Wind Dir Waves Ship Positions

Otago Bay

Last reported at 2018-May-21 13:23 UTC. Time now 2018-May-24 12:11 UTC.
Position N 39°54' E 119°35'.

Length 190 m; draft 12.5 m.

Type: Cargo ship. MMSI: 477023600.

Date/timePositionNaut miles runAvg speedWind from/ knotsBaromVisibWave heightAir tempDewpointWater temp
2018-May-21 13:23N 39°54' E 119°35'0 0.0
2018-May-21 12:50N 39°54' E 119°35'0 0.0
2018-May-21 12:29N 39°54' E 119°35'0 0.0
2018-May-21 11:54N 39°54' E 119°35'  
2018-May-18 11:24N 38°30' E 121°13'3011.9
2018-May-18 08:52N 38°23' E 121°51'513.0
2018-May-18 08:30N 38°23' E 121°57'  
2018-May-14 15:00N 39°18' E 137°00'19113.1 230 / 151006.0 0.1 10.0 7.9 9.0
2018-May-14 00:24N 41°19' E 140°13'410.0
2018-May-13 23:59N 41°22' E 140°18'510.2
2018-May-13 23:30N 41°25' E 140°23'610.5
2018-May-13 22:58N 41°28' E 140°30'510.3
2018-May-13 22:30N 41°30' E 140°35'510.6
2018-May-13 22:00N 41°33' E 140°41'611.9
2018-May-13 21:30N 41°37' E 140°47'511.0
2018-May-13 21:00N 41°39' E 140°54'510.7
2018-May-13 20:30N 41°39' E 141°01'612.1
2018-May-13 20:00N 41°39' E 141°09'713.1
2018-May-13 19:30N 41°39' E 141°18'612.2
2018-May-13 19:00N 41°39' E 141°26'611.2
2018-May-13 18:28N 41°38' E 141°34'  

Dump ship's entire track history